Dodge City, Kansas
Current Conditions -  °F | °C
As of 3:52 PM on Wednesday 28 Jan 2015 (Local Time) from KDDC Reporting Station
Clear Clear  
Wind Chill: 69°   Ceiling: Unl
Heat Index: 69°   Visibility: 10mi
Dew Point: 27°   Wind: 20mph
Humidity: 21%   Direction: 320°NW
Pressure: 29.9"   Gusts: 31mph
Location:  37.75°N, 100.01°W
Report Text: KDDC 282152Z AUTO 32017G27KT 10SM CLR 21/M03 A2990 RMK AO2 PK WND 32031/2117 SLP113 T02061028
Loading
Personal Weather Stations






























Interactive Weather Map New forecast layout! Learn more

10-Day Weather Forecast

Advertisements
Track Severe Weather on mobile